Time;durP1;ratioP1;P1;durP2;ratioP2;P2;SDS_P1;SDS_P2;PMS_P1;PMS_P2;Temp;Humidity;BMP_temperature;BMP_pressure;BME280_temperature;BME280_humidity;BME280_pressure;Samples;Min_cycle;Max_cycle;Signal;HPM_P1;HPM_P2
2022/01/08 00:01:24;;;;;;;8.73;7.83;;;;;;;-2.21;100.00;97662.91;4954400;29;20494;-69
2022/01/08 00:03:53;;;;;;;9.17;8.27;;;;;;;-2.11;100.00;97656.22;4954388;29;20239;-69
2022/01/08 00:06:22;;;;;;;9.67;8.07;;;;;;;-2.14;100.00;97656.41;4953778;28;21030;-70
2022/01/08 00:08:50;;;;;;;10.20;7.87;;;;;;;-2.11;100.00;97647.63;4953593;29;20579;-71
2022/01/08 00:11:20;;;;;;;8.70;7.80;;;;;;;-2.08;100.00;97644.84;4954247;29;20199;-69
2022/01/08 00:13:49;;;;;;;9.10;8.20;;;;;;;-2.13;100.00;97642.50;4953998;29;20230;-70
2022/01/08 00:16:17;;;;;;;10.43;8.90;;;;;;;-2.17;100.00;97637.63;4954206;29;20442;-70
2022/01/08 00:18:45;;;;;;;11.67;8.80;;;;;;;-2.10;100.00;97638.91;4953761;29;20203;-68
2022/01/08 00:21:14;;;;;;;7.83;7.03;;;;;;;-2.15;100.00;97639.16;4953868;29;20234;-68
2022/01/08 00:23:42;;;;;;;10.33;9.27;;;;;;;-2.15;100.00;97633.97;4954028;29;20236;-69
2022/01/08 00:26:10;;;;;;;7.97;7.10;;;;;;;-2.04;100.00;97641.97;4953842;29;20454;-68
2022/01/08 00:28:38;;;;;;;13.13;8.87;;;;;;;-2.09;100.00;97644.00;4953482;29;20218;-68
2022/01/08 00:31:09;;;;;;;10.20;8.93;;;;;;;-2.01;100.00;97640.94;4953620;29;20218;-69
2022/01/08 00:33:38;;;;;;;11.30;9.07;;;;;;;-1.96;100.00;97635.47;4953566;29;20715;-69
2022/01/08 00:36:06;;;;;;;10.30;9.20;;;;;;;-1.92;100.00;97642.16;4953860;29;20446;-68
2022/01/08 00:38:36;;;;;;;9.17;8.37;;;;;;;-1.87;100.00;97640.09;4953386;29;20207;-70
2022/01/08 00:41:04;;;;;;;9.60;8.27;;;;;;;-1.85;100.00;97646.03;4953448;29;20486;-68
2022/01/08 00:43:32;;;;;;;10.67;9.33;;;;;;;-1.72;100.00;97640.91;4953412;29;20237;-69
2022/01/08 00:46:00;;;;;;;10.83;9.70;;;;;;;-1.72;100.00;97624.47;4953467;29;20214;-68
2022/01/08 00:48:28;;;;;;;11.13;8.50;;;;;;;-1.68;100.00;97626.78;4953271;29;20226;-68
2022/01/08 00:50:56;;;;;;;9.57;8.63;;;;;;;-1.68;100.00;97621.59;4954100;29;20230;-69
2022/01/08 00:53:25;;;;;;;9.73;8.83;;;;;;;-1.67;100.00;97619.84;4953294;29;20254;-68
2022/01/08 00:55:54;;;;;;;11.43;8.93;;;;;;;-1.64;100.00;97615.28;4953580;29;20776;-70
2022/01/08 00:58:23;;;;;;;9.43;8.50;;;;;;;-1.65;100.00;97612.78;4953169;29;20223;-69
2022/01/08 01:00:51;;;;;;;10.33;9.07;;;;;;;-1.67;100.00;97607.66;4953391;29;20207;-69
2022/01/08 01:03:19;;;;;;;12.00;8.57;;;;;;;-1.68;100.00;97608.59;4952957;29;20329;-69
2022/01/08 01:05:47;;;;;;;10.40;9.50;;;;;;;-1.70;100.00;97604.44;4953263;29;20792;-68
2022/01/08 01:08:15;;;;;;;10.17;8.33;;;;;;;-1.64;100.00;97597.09;4952821;29;20207;-69
2022/01/08 01:10:43;;;;;;;10.00;8.97;;;;;;;-1.68;100.00;97593.00;4953409;29;20214;-69
2022/01/08 01:13:12;;;;;;;11.10;9.80;;;;;;;-1.69;100.00;97585.34;4952809;29;20474;-69
2022/01/08 01:15:40;;;;;;;9.90;8.97;;;;;;;-1.70;100.00;97576.69;4953011;28;20211;-68
2022/01/08 01:18:09;;;;;;;9.60;8.70;;;;;;;-1.60;100.00;97572.56;4952357;29;20218;-69
2022/01/08 01:20:37;;;;;;;9.93;8.87;;;;;;;-1.73;100.00;97570.84;4952848;29;20293;-68
2022/01/08 01:23:10;;;;;;;10.63;9.27;;;;;;;-1.76;100.00;97553.69;4952796;29;20242;-69
2022/01/08 01:25:42;;;;;;;9.57;8.37;;;;;;;-1.76;100.00;97562.31;4952979;29;20215;-69
2022/01/08 01:41:07;;;;;;;9.43;8.67;;;;;;;-1.81;100.00;97555.75;4950476;29;20211;-69
2022/01/08 01:47:37;;;;;;;8.57;7.77;;;;;;;-1.73;100.00;97529.28;4951908;29;20222;-68
2022/01/08 01:50:08;;;;;;;9.53;8.47;;;;;;;-1.84;100.00;97532.56;4952399;29;20206;-69
2022/01/08 01:52:36;;;;;;;10.83;8.40;;;;;;;-1.88;100.00;97537.13;4952174;29;20446;-70
2022/01/08 01:55:06;;;;;;;10.40;8.47;;;;;;;-1.95;100.00;97526.28;4952451;29;20439;-69
2022/01/08 01:57:35;;;;;;;10.40;8.23;;;;;;;-1.95;100.00;97523.69;4952216;29;20218;-69
2022/01/08 02:00:05;;;;;;;10.13;9.13;;;;;;;-1.94;100.00;97508.94;4952234;29;20210;-69
2022/01/08 02:02:33;;;;;;;7.67;7.07;;;;;;;-1.85;100.00;97505.75;4952395;29;20226;-68
2022/01/08 02:05:03;;;;;;;9.00;7.97;;;;;;;-1.93;100.00;97505.41;4952394;29;20447;-69
2022/01/08 02:07:31;;;;;;;9.03;7.80;;;;;;;-1.97;100.00;97507.38;4952158;29;20231;-70
2022/01/08 02:09:59;;;;;;;7.60;6.87;;;;;;;-2.04;100.00;97496.56;4952098;29;20213;-69
2022/01/08 02:12:32;;;;;;;8.17;7.37;;;;;;;-2.02;100.00;97495.63;4952379;29;20202;-70
2022/01/08 02:15:00;;;;;;;8.60;7.77;;;;;;;-1.97;100.00;97502.16;4952160;29;20680;-69
2022/01/08 02:17:28;;;;;;;8.70;7.93;;;;;;;-2.02;100.00;97480.84;4952027;29;20591;-69
2022/01/08 02:19:58;;;;;;;8.73;7.90;;;;;;;-1.92;100.00;97481.94;4952122;29;20203;-70
2022/01/08 02:22:26;;;;;;;8.60;7.83;;;;;;;-2.05;100.00;97474.09;4952185;29;20233;-69
2022/01/08 02:24:54;;;;;;;10.77;8.23;;;;;;;-1.99;100.00;97472.06;4952135;29;20210;-70
2022/01/08 02:27:22;;;;;;;9.13;8.23;;;;;;;-2.00;100.00;97468.59;4951726;28;20561;-69
2022/01/08 02:29:51;;;;;;;7.43;6.83;;;;;;;-2.04;100.00;97457.59;4954085;29;20214;-71
2022/01/08 02:32:24;;;;;;;8.57;7.77;;;;;;;-2.09;100.00;97462.22;4955762;29;20202;-70
2022/01/08 02:34:52;;;;;;;9.17;8.27;;;;;;;-2.18;100.00;97449.84;4955810;29;20242;-70
2022/01/08 02:37:25;;;;;;;7.67;6.87;;;;;;;-2.14;100.00;97450.50;4955531;29;20211;-69
2022/01/08 02:39:53;;;;;;;7.77;6.97;;;;;;;-2.15;100.00;97444.44;4956081;29;20529;-71
2022/01/08 02:42:23;;;;;;;7.50;6.80;;;;;;;-2.00;100.00;97444.41;4955923;29;20230;-72
2022/01/08 02:44:51;;;;;;;8.27;7.27;;;;;;;-2.01;100.00;97434.97;4955894;29;20218;-69
2022/01/08 02:47:21;;;;;;;8.30;7.43;;;;;;;-2.10;100.00;97424.22;4955505;29;20278;-68
2022/01/08 02:49:52;;;;;;;6.90;6.30;;;;;;;-2.05;100.00;97423.91;4955302;29;20207;-70
2022/01/08 02:52:23;;;;;;;6.97;6.37;;;;;;;-2.01;100.00;97416.78;4955647;29;20203;-69
2022/01/08 02:54:51;;;;;;;7.83;7.07;;;;;;;-2.01;100.00;97417.59;4955484;29;20218;-70
2022/01/08 02:57:19;;;;;;;7.07;6.43;;;;;;;-2.00;100.00;97406.28;4955366;29;20203;-69
2022/01/08 02:59:47;;;;;;;7.23;6.50;;;;;;;-1.99;100.00;97407.94;4955390;29;20211;-69
2022/01/08 03:02:15;;;;;;;9.13;7.17;;;;;;;-1.96;100.00;97406.94;4955264;29;20242;-70
2022/01/08 03:04:45;;;;;;;7.27;6.57;;;;;;;-1.99;100.00;97397.56;4955900;29;20650;-69
2022/01/08 03:07:13;;;;;;;7.40;6.70;;;;;;;-1.91;100.00;97389.28;4955090;29;20454;-69
2022/01/08 03:09:42;;;;;;;6.60;6.00;;;;;;;-1.86;100.00;97394.19;4955282;29;20210;-69
2022/01/08 03:12:10;;;;;;;6.90;6.20;;;;;;;-1.86;100.00;97384.59;4955358;29;20207;-69
2022/01/08 03:14:38;;;;;;;6.37;5.77;;;;;;;-1.79;100.00;97377.25;4954631;29;20242;-70
2022/01/08 03:17:07;;;;;;;6.80;6.23;;;;;;;-1.78;100.00;97377.13;4955367;29;20242;-69
2022/01/08 03:19:35;;;;;;;7.17;6.57;;;;;;;-1.84;100.00;97371.53;4955314;29;20214;-69
2022/01/08 03:22:04;;;;;;;5.90;5.40;;;;;;;-1.73;100.00;97369.03;4955425;29;20222;-69
2022/01/08 03:24:32;;;;;;;8.30;6.47;;;;;;;-1.80;100.00;97363.41;4955007;29;20545;-71
2022/01/08 03:27:02;;;;;;;6.77;6.17;;;;;;;-1.79;100.00;97370.28;4954945;29;20392;-69
2022/01/08 03:29:30;;;;;;;6.60;6.00;;;;;;;-1.75;100.00;97376.91;4954490;29;20800;-69
2022/01/08 03:31:58;;;;;;;7.70;6.37;;;;;;;-1.67;100.00;97366.03;4954990;29;20451;-69
2022/01/08 03:34:26;;;;;;;6.27;5.67;;;;;;;-1.61;100.00;97367.41;4954588;29;20580;-70
2022/01/08 03:36:54;;;;;;;7.03;6.10;;;;;;;-1.68;100.00;97369.56;4954532;29;20927;-70
2022/01/08 03:39:22;;;;;;;6.33;5.80;;;;;;;-1.66;100.00;97362.50;4953870;28;20261;-69
2022/01/08 03:41:50;;;;;;;6.30;5.80;;;;;;;-1.63;100.00;97357.09;4954627;29;20252;-70
2022/01/08 03:44:20;;;;;;;6.17;5.60;;;;;;;-1.63;100.00;97359.69;4954481;29;20238;-70
2022/01/08 03:46:48;;;;;;;6.27;5.77;;;;;;;-1.61;100.00;97354.41;4954266;29;20211;-69
2022/01/08 03:49:23;;;;;;;5.80;5.40;;;;;;;-1.50;100.00;97353.69;4954313;29;20531;-70
2022/01/08 03:51:52;;;;;;;7.43;6.70;;;;;;;-1.56;100.00;97367.06;4954362;29;20210;-70
2022/01/08 03:54:21;;;;;;;7.00;5.53;;;;;;;-1.61;100.00;97359.59;4954450;29;20223;-69
2022/01/08 03:56:49;;;;;;;5.77;5.37;;;;;;;-1.55;100.00;97364.38;4954344;29;20681;-69
2022/01/08 03:59:17;;;;;;;6.53;5.77;;;;;;;-1.50;100.00;97354.50;4954146;29;20215;-71
2022/01/08 04:01:47;;;;;;;5.93;5.53;;;;;;;-1.60;100.00;97351.69;4954261;29;20700;-69
2022/01/08 04:04:15;;;;;;;6.17;5.57;;;;;;;-1.48;100.00;97351.81;4953825;29;20260;-70
2022/01/08 04:06:44;;;;;;;6.60;6.00;;;;;;;-1.60;100.00;97346.50;4953970;29;20464;-69
2022/01/08 04:09:12;;;;;;;6.60;5.67;;;;;;;-1.58;100.00;97343.81;4953895;29;20210;-70
2022/01/08 04:11:40;;;;;;;6.10;5.60;;;;;;;-1.58;100.00;97343.81;4954217;29;20219;-69
2022/01/08 04:14:08;;;;;;;5.47;5.07;;;;;;;-1.57;100.00;97342.88;4953910;29;20227;-69
2022/01/08 04:16:40;;;;;;;6.00;5.50;;;;;;;-1.56;100.00;97328.09;4953994;29;20222;-69
2022/01/08 04:19:10;;;;;;;5.50;5.10;;;;;;;-1.58;100.00;97330.81;4954789;29;20564;-70
2022/01/08 04:24:24;;;;;;;5.77;5.37;;;;;;;-1.52;100.00;97320.00;4953993;29;20611;-69
2022/01/08 04:26:52;;;;;;;5.90;5.40;;;;;;;-1.52;100.00;97317.38;4953927;29;20215;-70
2022/01/08 04:29:20;;;;;;;6.50;5.90;;;;;;;-1.50;100.00;97323.31;4953723;29;20214;-70
2022/01/08 04:31:48;;;;;;;6.00;5.33;;;;;;;-1.50;100.00;97317.31;4953924;29;20207;-71
2022/01/08 04:34:17;;;;;;;5.97;5.37;;;;;;;-1.50;100.00;97315.50;4953780;29;20241;-70
2022/01/08 04:36:46;;;;;;;5.73;5.23;;;;;;;-1.39;100.00;97317.38;4953864;29;20210;-69
2022/01/08 04:39:14;;;;;;;5.37;4.93;;;;;;;-1.38;100.00;97310.41;4953627;29;20623;-70
2022/01/08 04:41:43;;;;;;;5.53;4.93;;;;;;;-1.34;100.00;97304.06;4953601;29;20211;-69
2022/01/08 04:44:11;;;;;;;5.93;5.37;;;;;;;-1.44;100.00;97303.88;4953503;29;20235;-70
2022/01/08 04:46:41;;;;;;;5.53;5.07;;;;;;;-1.33;100.00;97297.91;4953470;29;20207;-69
2022/01/08 04:49:09;;;;;;;5.70;5.20;;;;;;;-1.39;100.00;97295.75;4953407;29;20215;-69
2022/01/08 04:51:38;;;;;;;6.00;5.30;;;;;;;-1.35;100.00;97295.44;4952672;28;20210;-70
2022/01/08 04:54:07;;;;;;;6.90;6.13;;;;;;;-1.33;100.00;97282.31;4953174;29;20704;-70
2022/01/08 04:56:35;;;;;;;7.23;5.77;;;;;;;-1.37;100.00;97265.28;4953172;29;20211;-70
2022/01/08 04:59:03;;;;;;;7.27;6.07;;;;;;;-1.30;100.00;97274.34;4953214;29;20218;-70
2022/01/08 05:01:31;;;;;;;6.13;5.63;;;;;;;-1.31;100.00;97262.28;4953247;29;20207;-70
2022/01/08 05:04:00;;;;;;;6.00;5.40;;;;;;;-1.32;100.00;97258.00;4953147;29;20239;-70
2022/01/08 05:06:28;;;;;;;8.17;6.07;;;;;;;-1.15;100.00;97259.41;4952976;29;20245;-70
2022/01/08 05:08:57;;;;;;;6.03;5.43;;;;;;;-1.22;100.00;97259.03;4952900;29;20545;-70
2022/01/08 05:11:27;;;;;;;6.83;6.20;;;;;;;-1.18;100.00;97260.47;4952847;29;20206;-70
2022/01/08 05:13:55;;;;;;;8.27;7.40;;;;;;;-1.17;100.00;97259.53;4952785;29;20238;-71
2022/01/08 05:16:24;;;;;;;6.73;6.00;;;;;;;-1.15;100.00;97249.00;4952743;29;20457;-72
2022/01/08 05:18:54;;;;;;;7.37;6.67;;;;;;;-1.19;100.00;97248.41;4952411;29;20206;-70
2022/01/08 05:21:25;;;;;;;6.10;5.60;;;;;;;-1.10;100.00;97249.53;4952690;29;20202;-70
2022/01/08 05:23:53;;;;;;;6.87;6.20;;;;;;;-1.08;100.00;97241.59;4952745;29;20238;-70
2022/01/08 05:26:24;;;;;;;6.77;5.97;;;;;;;-1.13;100.00;97241.09;4952748;29;20214;-69
2022/01/08 05:28:52;;;;;;;6.37;5.80;;;;;;;-1.18;100.00;97239.66;4952265;29;20210;-70
2022/01/08 05:31:22;;;;;;;6.50;5.80;;;;;;;-1.08;100.00;97241.59;4952661;29;20210;-72
2022/01/08 05:33:52;;;;;;;6.57;5.97;;;;;;;-0.99;100.00;97229.72;4952761;29;20232;-70
2022/01/08 05:36:21;;;;;;;5.40;4.90;;;;;;;-1.09;100.00;97230.38;4952393;29;20210;-69
2022/01/08 05:38:49;;;;;;;5.93;5.43;;;;;;;-1.05;100.00;97230.97;4952369;29;20558;-71
2022/01/08 05:41:17;;;;;;;5.87;5.37;;;;;;;-1.06;100.00;97230.16;4952789;29;20274;-72
2022/01/08 05:43:47;;;;;;;6.00;5.40;;;;;;;-1.12;100.00;97227.16;4952225;29;20238;-70
2022/01/08 05:46:15;;;;;;;6.30;5.80;;;;;;;-1.17;100.00;97233.53;4952575;29;21001;-72
2022/01/08 05:48:43;;;;;;;5.33;4.83;;;;;;;-1.06;100.00;97244.91;4952343;29;20443;-70
2022/01/08 05:51:11;;;;;;;6.73;6.13;;;;;;;-1.06;100.00;97237.13;4952405;29;20211;-69
2022/01/08 05:53:39;;;;;;;5.43;5.03;;;;;;;-1.08;100.00;97241.59;4952268;29;20242;-69
2022/01/08 05:56:08;;;;;;;5.73;5.23;;;;;;;-1.09;100.00;97240.78;4952125;29;20472;-70
2022/01/08 05:58:38;;;;;;;5.67;4.60;;;;;;;-0.96;100.00;97234.69;4952046;29;20214;-72
2022/01/08 06:01:07;;;;;;;5.70;5.10;;;;;;;-0.96;100.00;97235.50;4952483;29;20203;-69
2022/01/08 06:03:35;;;;;;;4.87;4.50;;;;;;;-0.96;100.00;97242.50;4951896;28;20329;-70
2022/01/08 06:06:04;;;;;;;5.77;5.17;;;;;;;-0.99;100.00;97240.94;4952175;29;20207;-70
2022/01/08 06:08:32;;;;;;;5.73;5.13;;;;;;;-1.05;100.00;97239.63;4952210;29;20218;-69
2022/01/08 06:11:00;;;;;;;5.40;5.00;;;;;;;-0.99;100.00;97232.31;4952042;29;20242;-69
2022/01/08 06:13:28;;;;;;;4.83;4.43;;;;;;;-1.03;100.00;97234.28;4951779;29;20249;-69
2022/01/08 06:15:56;;;;;;;5.27;4.73;;;;;;;-1.01;100.00;97235.00;4951876;29;20580;-71
2022/01/08 06:18:25;;;;;;;6.90;5.43;;;;;;;-1.02;100.00;97239.41;4951754;29;20218;-72
2022/01/08 06:20:55;;;;;;;5.00;4.60;;;;;;;-1.00;100.00;97238.47;4951963;29;20207;-69
2022/01/08 06:23:23;;;;;;;4.63;4.30;;;;;;;-1.03;100.00;97236.91;4952007;29;20318;-69
2022/01/08 06:25:51;;;;;;;7.00;4.83;;;;;;;-1.09;100.00;97245.13;4951998;29;20491;-70
2022/01/08 06:28:19;;;;;;;4.57;4.17;;;;;;;-1.09;100.00;97246.00;4952164;29;20826;-69
2022/01/08 06:30:48;;;;;;;4.73;4.23;;;;;;;-0.97;100.00;97241.66;4951788;29;20219;-70
2022/01/08 06:33:16;;;;;;;5.00;4.50;;;;;;;-1.03;100.00;97242.94;4951804;29;20253;-70
2022/01/08 06:35:46;;;;;;;4.43;4.13;;;;;;;-0.96;100.00;97240.72;4951791;29;20211;-70
2022/01/08 06:38:15;;;;;;;4.10;3.80;;;;;;;-0.93;100.00;97237.06;4951989;29;20207;-70
2022/01/08 06:40:43;;;;;;;4.33;4.03;;;;;;;-1.04;100.00;97245.63;4951841;29;20226;-71
2022/01/08 06:43:11;;;;;;;4.83;4.43;;;;;;;-1.03;100.00;97239.50;4951678;29;20249;-70
2022/01/08 06:45:39;;;;;;;4.20;3.90;;;;;;;-1.08;100.00;97244.19;4951664;29;20607;-69
2022/01/08 06:48:07;;;;;;;4.90;4.33;;;;;;;-1.01;100.00;97245.41;4951401;29;20438;-69
2022/01/08 06:50:35;;;;;;;4.43;4.13;;;;;;;-1.03;100.00;97249.91;4951733;29;20302;-70
2022/01/08 06:53:05;;;;;;;3.70;3.50;;;;;;;-0.97;100.00;97238.25;4951522;29;20467;-70
2022/01/08 06:55:33;;;;;;;4.50;4.10;;;;;;;-1.08;100.00;97254.59;4951695;29;20207;-70
2022/01/08 06:58:01;;;;;;;4.50;4.10;;;;;;;-1.05;100.00;97256.97;4951177;29;20211;-71
2022/01/08 07:00:29;;;;;;;3.83;3.53;;;;;;;-1.07;100.00;97257.09;4951868;29;20230;-74
2022/01/08 07:02:59;;;;;;;5.60;4.30;;;;;;;-1.04;100.00;97261.25;4951658;29;20293;-71
2022/01/08 07:05:27;;;;;;;4.77;4.33;;;;;;;-0.98;100.00;97263.41;4951618;29;20612;-71
2022/01/08 07:07:56;;;;;;;4.90;4.47;;;;;;;-1.00;100.00;97261.88;4951420;29;20214;-71
2022/01/08 07:10:25;;;;;;;5.20;4.73;;;;;;;-0.93;100.00;97268.28;4951618;29;20588;-72
2022/01/08 07:12:53;;;;;;;4.70;4.30;;;;;;;-1.05;100.00;97268.22;4951083;29;20267;-70
2022/01/08 07:15:21;;;;;;;5.07;4.67;;;;;;;-1.02;100.00;97274.97;4953596;28;20572;-71
2022/01/08 07:17:49;;;;;;;5.47;5.07;;;;;;;-0.93;100.00;97274.34;4954657;29;20218;-70
2022/01/08 07:20:18;;;;;;;5.60;5.10;;;;;;;-0.95;100.00;97275.38;4955230;29;20240;-70
2022/01/08 07:22:46;;;;;;;4.90;4.50;;;;;;;-1.06;100.00;97271.78;4954743;29;20227;-70
2022/01/08 07:25:14;;;;;;;4.80;3.80;;;;;;;-1.02;100.00;97278.41;4954340;29;20249;-70
2022/01/08 07:27:43;;;;;;;4.60;4.30;;;;;;;-1.08;100.00;97281.44;4954501;29;20210;-71
2022/01/08 07:30:12;;;;;;;3.97;3.73;;;;;;;-1.01;100.00;97279.22;4954380;29;20210;-74
2022/01/08 07:32:43;;;;;;;4.20;3.80;;;;;;;-1.00;100.00;97287.88;4955011;29;20262;-70
2022/01/08 07:35:14;;;;;;;4.87;4.30;;;;;;;-0.84;100.00;97295.44;4954541;29;20249;-73
2022/01/08 07:37:43;;;;;;;3.67;3.47;;;;;;;-0.90;100.00;97302.72;4954363;29;20306;-71
2022/01/08 07:40:11;;;;;;;4.33;3.97;;;;;;;-0.99;100.00;97307.75;4954569;29;20217;-70
2022/01/08 07:42:40;;;;;;;5.57;5.17;;;;;;;-0.96;100.00;97308.34;4954607;29;20249;-68
2022/01/08 07:45:14;;;;;;;4.83;4.43;;;;;;;-0.82;100.00;97303.94;4954495;29;20339;-69
2022/01/08 07:47:42;;;;;;;4.60;4.20;;;;;;;-0.75;100.00;97313.81;4954158;29;20206;-73
2022/01/08 07:50:11;;;;;;;3.90;3.60;;;;;;;-0.80;100.00;97315.06;4954478;29;20207;-70
2022/01/08 07:52:39;;;;;;;4.67;4.27;;;;;;;-0.78;100.00;97321.00;4954157;29;20231;-71
2022/01/08 07:55:08;;;;;;;4.17;3.87;;;;;;;-0.75;100.00;97326.81;4954641;29;20203;-70
2022/01/08 07:57:36;;;;;;;3.97;3.63;;;;;;;-0.85;100.00;97332.78;4954750;29;20241;-71
2022/01/08 08:00:05;;;;;;;3.90;3.70;;;;;;;-0.78;100.00;97328.81;4954314;29;20211;-70
2022/01/08 08:02:35;;;;;;;3.83;3.53;;;;;;;-0.64;100.00;97335.63;4954070;29;20215;-72
2022/01/08 08:05:03;;;;;;;3.70;3.40;;;;;;;-0.67;100.00;97341.88;4954482;29;20321;-70
2022/01/08 08:07:37;;;;;;;4.17;3.50;;;;;;;-0.67;100.00;97344.47;4954230;29;20297;-70
2022/01/08 08:10:07;;;;;;;3.23;3.03;;;;;;;-0.65;100.00;97349.59;4954423;29;20207;-69
2022/01/08 08:12:35;;;;;;;3.43;3.23;;;;;;;-0.67;100.00;97341.06;4954061;29;20694;-70
2022/01/08 08:15:05;;;;;;;4.40;4.10;;;;;;;-0.63;100.00;97348.53;4954598;29;20210;-69
2022/01/08 08:17:34;;;;;;;4.17;3.60;;;;;;;-0.59;100.00;97360.38;4953957;29;20446;-69
2022/01/08 08:20:04;;;;;;;3.60;3.30;;;;;;;-0.55;100.00;97361.00;4953937;29;20215;-68
2022/01/08 08:22:32;;;;;;;3.63;3.43;;;;;;;-0.62;100.00;97368.41;4953841;29;20207;-69
2022/01/08 08:25:00;;;;;;;3.47;3.27;;;;;;;-0.56;100.00;97368.94;4954162;29;20203;-69
2022/01/08 08:27:29;;;;;;;4.23;3.93;;;;;;;-0.52;100.00;97375.56;4953837;29;20226;-69
2022/01/08 08:29:58;;;;;;;4.50;4.20;;;;;;;-0.47;100.00;97368.25;4953861;29;20217;-69
2022/01/08 08:32:26;;;;;;;5.10;3.77;;;;;;;-0.52;100.00;97378.19;4953799;29;20449;-68
2022/01/08 08:34:56;;;;;;;4.40;3.67;;;;;;;-0.46;100.00;97369.94;4953835;29;20207;-69
2022/01/08 08:37:24;;;;;;;3.67;3.47;;;;;;;-0.41;100.00;97375.63;4952998;29;20446;-72
2022/01/08 08:39:52;;;;;;;4.47;4.17;;;;;;;-0.41;100.00;97377.38;4953690;29;20213;-69
2022/01/08 08:42:20;;;;;;;5.30;4.90;;;;;;;-0.40;100.00;97387.72;4953726;29;20206;-69
2022/01/08 08:44:48;;;;;;;4.83;4.43;;;;;;;-0.40;100.00;97395.50;4953447;29;20302;-70
2022/01/08 08:47:16;;;;;;;15.83;8.50;;;;;;;-0.44;100.00;97386.28;4953450;29;20482;-69
2022/01/08 08:49:44;;;;;;;8.73;4.83;;;;;;;-0.42;100.00;97394.78;4953987;29;20269;-69
2022/01/08 08:52:14;;;;;;;56.47;23.20;;;;;;;-0.39;100.00;97401.53;4953767;29;20950;-68
2022/01/08 08:54:43;;;;;;;26.00;13.23;;;;;;;-0.32;100.00;97406.22;4953417;29;20883;-70
2022/01/08 08:57:11;;;;;;;4.20;3.90;;;;;;;-0.39;100.00;97406.75;4953355;29;20206;-69
2022/01/08 08:59:39;;;;;;;11.73;7.70;;;;;;;-0.39;100.00;97422.38;4953107;29;20257;-69
2022/01/08 09:02:07;;;;;;;28.17;14.77;;;;;;;-0.35;100.00;97424.66;4952984;29;20207;-69
2022/01/08 09:04:36;;;;;;;14.07;9.30;;;;;;;-0.35;100.00;97424.66;4952827;29;20227;-69
2022/01/08 09:07:05;;;;;;;11.27;9.60;;;;;;;-0.37;100.00;97436.13;4952927;29;20238;-69
2022/01/08 09:09:34;;;;;;;14.60;9.83;;;;;;;-0.40;100.00;97447.59;4953175;29;20443;-69
2022/01/08 09:12:03;;;;;;;6.97;6.27;;;;;;;-0.34;100.00;97447.16;4953613;29;20254;-68
2022/01/08 09:14:32;;;;;;;4.53;4.13;;;;;;;-0.42;100.00;97456.44;4953602;29;20474;-69
2022/01/08 09:17:04;;;;;;;8.97;8.07;;;;;;;-0.48;100.00;97458.53;4953793;29;20206;-69
2022/01/08 09:19:32;;;;;;;6.07;5.03;;;;;;;-0.43;100.00;97471.25;4953611;29;20214;-70
2022/01/08 09:22:01;;;;;;;6.87;6.10;;;;;;;-0.42;100.00;97472.91;4953446;29;20210;-70
2022/01/08 09:24:30;;;;;;;9.83;7.87;;;;;;;-0.49;100.00;97482.91;4953158;29;20470;-69
2022/01/08 09:27:00;;;;;;;2.90;2.70;;;;;;;-0.44;100.00;97500.81;4953472;29;21135;-69
2022/01/08 09:29:28;;;;;;;2.97;2.70;;;;;;;-0.46;100.00;97494.88;4952788;29;20453;-69
2022/01/08 09:31:56;;;;;;;5.90;5.03;;;;;;;-0.47;100.00;97507.06;4953044;29;20210;-69
2022/01/08 09:34:24;;;;;;;4.77;4.00;;;;;;;-0.51;100.00;97513.41;4952886;29;20231;-70
2022/01/08 09:36:52;;;;;;;4.07;3.00;;;;;;;-0.49;100.00;97515.94;4952647;28;20211;-68
2022/01/08 09:39:20;;;;;;;9.73;6.97;;;;;;;-0.47;100.00;97525.28;4952639;29;20211;-69
2022/01/08 09:41:48;;;;;;;2.23;2.13;;;;;;;-0.51;100.00;97523.00;4953198;29;20210;-69
2022/01/08 09:44:17;;;;;;;3.20;3.00;;;;;;;-0.54;100.00;97531.84;4952589;29;20230;-70
2022/01/08 09:46:45;;;;;;;5.17;4.73;;;;;;;-0.59;100.00;97542.56;4952250;29;20715;-69
2022/01/08 09:49:14;;;;;;;3.80;3.50;;;;;;;-0.55;100.00;97542.38;4952392;29;20289;-68
2022/01/08 09:51:43;;;;;;;3.60;2.67;;;;;;;-0.57;100.00;97557.25;4949762;28;20473;-69
2022/01/08 09:54:11;;;;;;;14.23;9.03;;;;;;;-0.51;100.00;97568.09;4956654;28;20762;-67
2022/01/08 09:56:39;;;;;;;3.77;3.43;;;;;;;-0.57;100.00;97558.09;4952049;28;20542;-69
2022/01/08 09:59:07;;;;;;;7.70;3.17;;;;;;;-0.59;100.00;97580.78;4964044;28;20457;-66
2022/01/08 10:01:37;;;;;;;10.03;6.10;;;;;;;-0.62;100.00;97584.41;4971671;28;20209;-66
2022/01/08 10:04:06;;;;;;;8.20;5.77;;;;;;;-0.65;100.00;97592.44;4971370;28;20226;-66
2022/01/08 10:06:36;;;;;;;5.03;2.53;;;;;;;-0.55;100.00;97599.66;4956859;28;20326;-65
2022/01/08 10:09:05;;;;;;;5.77;3.63;;;;;;;-0.60;100.00;97608.56;4968200;28;20218;-67
2022/01/08 10:11:34;;;;;;;13.50;6.77;;;;;;;-0.66;100.00;97616.81;4960468;28;20643;-65
2022/01/08 10:14:06;;;;;;;24.33;11.00;;;;;;;-0.63;100.00;97620.97;4952256;28;20235;-66
2022/01/08 10:19:24;;;;;;;3.60;3.30;;;;;;;-0.59;100.00;97628.47;4935163;29;20287;-65
2022/01/08 10:21:53;;;;;;;10.50;6.23;;;;;;;-0.59;100.00;97631.06;4958631;28;20217;-65
2022/01/08 10:24:23;;;;;;;4.33;2.60;;;;;;;-0.61;100.00;97627.72;4961806;28;20463;-66
2022/01/08 10:26:52;;;;;;;3.27;2.97;;;;;;;-0.64;100.00;97627.94;4956815;28;20490;-65
2022/01/08 10:29:21;;;;;;;3.87;3.57;;;;;;;-0.64;100.00;97629.72;4951612;29;20830;-66
2022/01/08 10:31:51;;;;;;;3.27;2.70;;;;;;;-0.66;100.00;97635.03;4952309;29;20583;-66
2022/01/08 10:34:20;;;;;;;1.97;1.90;;;;;;;-0.73;100.00;97650.22;4952298;28;20580;-67
2022/01/08 10:36:51;;;;;;;2.73;2.60;;;;;;;-0.73;100.00;97647.63;4952115;28;20815;-67
2022/01/08 10:39:21;;;;;;;2.47;2.33;;;;;;;-0.70;100.00;97656.97;4952491;29;20211;-67
2022/01/08 10:41:50;;;;;;;2.53;2.43;;;;;;;-0.65;100.00;97657.50;4951820;28;20214;-67
2022/01/08 10:44:19;;;;;;;2.40;2.30;;;;;;;-0.66;100.00;97661.03;4951867;28;20254;-66
2022/01/08 10:46:56;;;;;;;3.73;3.53;;;;;;;-0.63;100.00;97668.66;4951616;28;20230;-67
2022/01/08 10:49:35;;;;;;;3.87;3.57;;;;;;;-0.69;100.00;97670.84;4952269;28;20384;-68
2022/01/08 10:52:05;;;;;;;3.47;3.27;;;;;;;-0.67;100.00;97669.78;4956791;28;20218;-67
2022/01/08 10:54:34;;;;;;;3.40;3.20;;;;;;;-0.71;100.00;97677.91;4955250;29;20231;-68
2022/01/08 10:57:06;;;;;;;3.37;3.17;;;;;;;-0.69;100.00;97682.06;4955358;29;20512;-67
2022/01/08 10:59:36;;;;;;;3.73;3.43;;;;;;;-0.63;100.00;97678.25;4954399;29;20206;-67
2022/01/08 11:02:07;;;;;;;3.40;3.20;;;;;;;-0.59;100.00;97682.31;4959175;28;20199;-67
2022/01/08 11:04:38;;;;;;;4.30;4.00;;;;;;;-0.60;100.00;97689.25;4954043;28;20234;-67
2022/01/08 11:07:08;;;;;;;8.10;3.63;;;;;;;-0.55;100.00;97690.75;4964129;28;20247;-67
2022/01/08 11:09:36;;;;;;;3.73;3.50;;;;;;;-0.51;100.00;97710.44;4974050;28;20453;-66
2022/01/08 11:12:07;;;;;;;3.60;3.30;;;;;;;-0.61;100.00;97700.63;4966897;28;20210;-67
2022/01/08 11:15:01;;;;;;;4.17;3.77;;;;;;;-0.51;100.00;97697.44;4957275;28;20289;-67
2022/01/08 11:17:34;;;;;;;4.00;3.60;;;;;;;-0.47;100.00;97696.28;4966278;28;20218;-66
2022/01/08 11:20:05;;;;;;;6.30;3.87;;;;;;;-0.44;100.00;97699.50;4965572;28;20294;-67
2022/01/08 11:22:35;;;;;;;4.17;3.87;;;;;;;-0.37;100.00;97702.53;4944382;28;20208;-67
2022/01/08 11:25:06;;;;;;;5.57;4.73;;;;;;;0.14;100.00;97695.66;4940853;29;20203;-74
2022/01/08 11:27:46;;;;;;;4.97;4.57;;;;;;;0.46;100.00;97718.66;4955305;28;20493;-64
2022/01/08 11:30:20;;;;;;;5.00;3.80;;;;;;;0.37;100.00;97708.88;4966310;28;20260;-64
2022/01/08 11:32:51;;;;;;;6.53;4.40;;;;;;;0.49;100.00;97705.41;4967500;28;20230;-64
2022/01/08 11:35:36;;;;;;;4.80;4.40;;;;;;;0.42;100.00;97717.22;4960724;28;20241;-64
2022/01/08 11:38:09;;;;;;;4.43;4.00;;;;;;;0.44;100.00;97707.53;4974215;28;20445;-67
2022/01/08 11:40:38;;;;;;;4.53;4.10;;;;;;;0.46;100.00;97704.81;4945428;28;20209;-64
2022/01/08 11:43:08;;;;;;;4.37;3.97;;;;;;;0.43;100.00;97724.94;4975293;28;20284;-67
2022/01/08 11:45:38;;;;;;;4.27;3.87;;;;;;;0.53;100.00;97711.25;4975183;28;20622;-64
2022/01/08 11:48:10;;;;;;;4.50;4.10;;;;;;;0.63;100.00;97711.47;4975241;28;20222;-63
2022/01/08 11:50:38;;;;;;;3.67;3.47;;;;;;;0.66;100.00;97721.66;4949640;29;20199;-64
2022/01/08 11:53:17;;;;;;;3.40;3.20;;;;;;;0.79;100.00;97712.03;4955524;28;20227;-65
2022/01/08 11:55:48;;;;;;;3.63;3.33;;;;;;;0.82;100.00;97706.59;4945638;29;20211;-66